sensor_id;sensor_type;location;lat;lon;timestamp;P1;durP1;ratioP1;P2;durP2;ratioP2
9789;SDS011;4934;50.852;8.098;2023-10-31T00:01:34;2.25;;;1.17;;
9789;SDS011;4934;50.852;8.098;2023-10-31T00:04:00;3.05;;;1.42;;
9789;SDS011;4934;50.852;8.098;2023-10-31T00:06:26;3.25;;;1.15;;
9789;SDS011;4934;50.852;8.098;2023-10-31T00:08:51;7.07;;;1.52;;
9789;SDS011;4934;50.852;8.098;2023-10-31T00:11:17;1.45;;;1.20;;
9789;SDS011;4934;50.852;8.098;2023-10-31T00:13:43;1.65;;;1.30;;
9789;SDS011;4934;50.852;8.098;2023-10-31T00:16:08;1.75;;;1.13;;
9789;SDS011;4934;50.852;8.098;2023-10-31T00:18:34;4.13;;;1.20;;
9789;SDS011;4934;50.852;8.098;2023-10-31T00:21:00;1.92;;;0.70;;
9789;SDS011;4934;50.852;8.098;2023-10-31T00:23:25;1.05;;;0.98;;
9789;SDS011;4934;50.852;8.098;2023-10-31T00:25:51;2.47;;;0.73;;
9789;SDS011;4934;50.852;8.098;2023-10-31T00:28:17;2.88;;;0.98;;
9789;SDS011;4934;50.852;8.098;2023-10-31T00:30:42;1.83;;;0.95;;
9789;SDS011;4934;50.852;8.098;2023-10-31T00:33:08;1.05;;;0.68;;
9789;SDS011;4934;50.852;8.098;2023-10-31T00:35:33;1.65;;;0.80;;
9789;SDS011;4934;50.852;8.098;2023-10-31T00:37:59;1.33;;;0.80;;
9789;SDS011;4934;50.852;8.098;2023-10-31T00:40:25;1.33;;;0.68;;
9789;SDS011;4934;50.852;8.098;2023-10-31T00:42:51;1.60;;;0.75;;
9789;SDS011;4934;50.852;8.098;2023-10-31T00:45:16;9.77;;;1.20;;
9789;SDS011;4934;50.852;8.098;2023-10-31T00:47:42;1.15;;;0.90;;
9789;SDS011;4934;50.852;8.098;2023-10-31T00:50:08;4.00;;;0.98;;
9789;SDS011;4934;50.852;8.098;2023-10-31T00:52:34;1.42;;;0.82;;
9789;SDS011;4934;50.852;8.098;2023-10-31T00:55:00;2.83;;;0.90;;
9789;SDS011;4934;50.852;8.098;2023-10-31T00:57:25;2.67;;;0.80;;
9789;SDS011;4934;50.852;8.098;2023-10-31T00:59:51;1.30;;;0.80;;
9789;SDS011;4934;50.852;8.098;2023-10-31T01:02:16;0.95;;;0.70;;
9789;SDS011;4934;50.852;8.098;2023-10-31T01:04:42;3.05;;;0.90;;
9789;SDS011;4934;50.852;8.098;2023-10-31T01:07:08;2.08;;;0.90;;
9789;SDS011;4934;50.852;8.098;2023-10-31T01:09:37;3.00;;;1.35;;
9789;SDS011;4934;50.852;8.098;2023-10-31T01:12:03;3.53;;;1.20;;
9789;SDS011;4934;50.852;8.098;2023-10-31T01:14:30;2.03;;;1.38;;
9789;SDS011;4934;50.852;8.098;2023-10-31T01:16:55;1.98;;;1.38;;
9789;SDS011;4934;50.852;8.098;2023-10-31T01:19:21;1.05;;;0.88;;
9789;SDS011;4934;50.852;8.098;2023-10-31T01:21:47;1.73;;;1.20;;
9789;SDS011;4934;50.852;8.098;2023-10-31T01:24:12;4.40;;;1.67;;
9789;SDS011;4934;50.852;8.098;2023-10-31T01:26:38;2.30;;;1.00;;
9789;SDS011;4934;50.852;8.098;2023-10-31T01:29:04;2.53;;;0.90;;
9789;SDS011;4934;50.852;8.098;2023-10-31T01:31:30;1.50;;;1.00;;
9789;SDS011;4934;50.852;8.098;2023-10-31T01:33:57;1.30;;;1.15;;
9789;SDS011;4934;50.852;8.098;2023-10-31T01:36:26;1.00;;;0.90;;
9789;SDS011;4934;50.852;8.098;2023-10-31T01:41:17;2.67;;;0.90;;
9789;SDS011;4934;50.852;8.098;2023-10-31T01:43:43;1.50;;;1.00;;
9789;SDS011;4934;50.852;8.098;2023-10-31T01:46:08;1.23;;;0.85;;
9789;SDS011;4934;50.852;8.098;2023-10-31T01:48:34;2.83;;;0.73;;
9789;SDS011;4934;50.852;8.098;2023-10-31T01:51:01;1.20;;;1.10;;
9789;SDS011;4934;50.852;8.098;2023-10-31T01:53:29;2.03;;;1.00;;
9789;SDS011;4934;50.852;8.098;2023-10-31T01:55:58;1.42;;;1.00;;
9789;SDS011;4934;50.852;8.098;2023-10-31T01:58:28;1.77;;;1.33;;
9789;SDS011;4934;50.852;8.098;2023-10-31T02:00:56;1.60;;;1.02;;
9789;SDS011;4934;50.852;8.098;2023-10-31T02:03:22;2.53;;;0.98;;
9789;SDS011;4934;50.852;8.098;2023-10-31T02:05:48;3.65;;;1.27;;
9789;SDS011;4934;50.852;8.098;2023-10-31T02:08:16;2.20;;;1.42;;
9789;SDS011;4934;50.852;8.098;2023-10-31T02:10:42;1.83;;;1.02;;
9789;SDS011;4934;50.852;8.098;2023-10-31T02:13:11;1.98;;;1.10;;
9789;SDS011;4934;50.852;8.098;2023-10-31T02:15:37;2.40;;;0.90;;
9789;SDS011;4934;50.852;8.098;2023-10-31T02:18:03;4.72;;;1.15;;
9789;SDS011;4934;50.852;8.098;2023-10-31T02:20:29;2.60;;;0.88;;
9789;SDS011;4934;50.852;8.098;2023-10-31T02:22:55;1.55;;;0.73;;
9789;SDS011;4934;50.852;8.098;2023-10-31T02:25:20;2.00;;;0.68;;
9789;SDS011;4934;50.852;8.098;2023-10-31T02:27:46;1.73;;;0.88;;
9789;SDS011;4934;50.852;8.098;2023-10-31T02:30:12;2.30;;;0.50;;
9789;SDS011;4934;50.852;8.098;2023-10-31T02:32:39;0.70;;;0.63;;
9789;SDS011;4934;50.852;8.098;2023-10-31T02:35:06;3.17;;;0.80;;
9789;SDS011;4934;50.852;8.098;2023-10-31T02:37:32;1.58;;;0.80;;
9789;SDS011;4934;50.852;8.098;2023-10-31T02:39:58;3.30;;;0.88;;
9789;SDS011;4934;50.852;8.098;2023-10-31T02:42:24;1.15;;;0.90;;
9789;SDS011;4934;50.852;8.098;2023-10-31T02:44:50;1.35;;;0.90;;
9789;SDS011;4934;50.852;8.098;2023-10-31T02:47:16;6.10;;;1.17;;
9789;SDS011;4934;50.852;8.098;2023-10-31T02:49:42;1.65;;;1.02;;
9789;SDS011;4934;50.852;8.098;2023-10-31T02:52:07;1.38;;;1.10;;
9789;SDS011;4934;50.852;8.098;2023-10-31T02:54:33;1.33;;;0.90;;
9789;SDS011;4934;50.852;8.098;2023-10-31T02:56:59;3.40;;;1.30;;
9789;SDS011;4934;50.852;8.098;2023-10-31T02:59:24;4.18;;;1.40;;
9789;SDS011;4934;50.852;8.098;2023-10-31T03:01:50;4.40;;;1.70;;
9789;SDS011;4934;50.852;8.098;2023-10-31T03:04:17;7.68;;;1.50;;
9789;SDS011;4934;50.852;8.098;2023-10-31T03:06:43;7.43;;;1.73;;
9789;SDS011;4934;50.852;8.098;2023-10-31T03:09:08;3.88;;;1.35;;
9789;SDS011;4934;50.852;8.098;2023-10-31T03:11:34;5.22;;;1.10;;
9789;SDS011;4934;50.852;8.098;2023-10-31T03:13:59;1.90;;;0.88;;
9789;SDS011;4934;50.852;8.098;2023-10-31T03:16:25;3.45;;;1.60;;
9789;SDS011;4934;50.852;8.098;2023-10-31T03:18:51;2.03;;;1.23;;
9789;SDS011;4934;50.852;8.098;2023-10-31T03:21:17;5.93;;;1.42;;
9789;SDS011;4934;50.852;8.098;2023-10-31T03:23:48;2.92;;;1.10;;
9789;SDS011;4934;50.852;8.098;2023-10-31T03:26:15;4.05;;;1.27;;
9789;SDS011;4934;50.852;8.098;2023-10-31T03:28:43;2.50;;;1.15;;
9789;SDS011;4934;50.852;8.098;2023-10-31T03:31:09;4.88;;;0.98;;
9789;SDS011;4934;50.852;8.098;2023-10-31T03:33:35;1.65;;;0.85;;
9789;SDS011;4934;50.852;8.098;2023-10-31T03:36:01;2.15;;;1.10;;
9789;SDS011;4934;50.852;8.098;2023-10-31T03:38:27;4.15;;;1.25;;
9789;SDS011;4934;50.852;8.098;2023-10-31T03:40:53;4.25;;;1.08;;
9789;SDS011;4934;50.852;8.098;2023-10-31T03:43:19;4.25;;;1.10;;
9789;SDS011;4934;50.852;8.098;2023-10-31T03:45:49;4.97;;;1.10;;
9789;SDS011;4934;50.852;8.098;2023-10-31T03:48:15;6.57;;;1.10;;
9789;SDS011;4934;50.852;8.098;2023-10-31T03:50:41;8.95;;;1.15;;
9789;SDS011;4934;50.852;8.098;2023-10-31T03:53:07;3.70;;;1.13;;
9789;SDS011;4934;50.852;8.098;2023-10-31T03:55:33;4.10;;;1.10;;
9789;SDS011;4934;50.852;8.098;2023-10-31T03:57:59;6.63;;;1.27;;
9789;SDS011;4934;50.852;8.098;2023-10-31T04:00:24;2.47;;;0.90;;
9789;SDS011;4934;50.852;8.098;2023-10-31T04:02:50;2.40;;;0.90;;
9789;SDS011;4934;50.852;8.098;2023-10-31T04:05:16;1.92;;;1.20;;
9789;SDS011;4934;50.852;8.098;2023-10-31T04:07:41;4.60;;;1.60;;
9789;SDS011;4934;50.852;8.098;2023-10-31T04:10:08;2.88;;;1.70;;
9789;SDS011;4934;50.852;8.098;2023-10-31T04:12:34;3.05;;;1.00;;
9789;SDS011;4934;50.852;8.098;2023-10-31T04:15:00;1.90;;;1.08;;
9789;SDS011;4934;50.852;8.098;2023-10-31T04:17:26;3.17;;;1.13;;
9789;SDS011;4934;50.852;8.098;2023-10-31T04:19:51;5.03;;;1.00;;
9789;SDS011;4934;50.852;8.098;2023-10-31T04:22:17;3.20;;;1.00;;
9789;SDS011;4934;50.852;8.098;2023-10-31T04:24:42;7.22;;;1.13;;
9789;SDS011;4934;50.852;8.098;2023-10-31T04:27:08;4.60;;;1.10;;
9789;SDS011;4934;50.852;8.098;2023-10-31T04:29:34;5.72;;;1.10;;
9789;SDS011;4934;50.852;8.098;2023-10-31T04:31:59;6.95;;;1.10;;
9789;SDS011;4934;50.852;8.098;2023-10-31T04:34:25;3.15;;;0.90;;
9789;SDS011;4934;50.852;8.098;2023-10-31T04:36:51;2.70;;;0.88;;
9789;SDS011;4934;50.852;8.098;2023-10-31T04:39:16;1.15;;;0.80;;
9789;SDS011;4934;50.852;8.098;2023-10-31T04:41:42;3.88;;;1.10;;
9789;SDS011;4934;50.852;8.098;2023-10-31T04:44:07;2.53;;;0.82;;
9789;SDS011;4934;50.852;8.098;2023-10-31T04:46:33;2.03;;;1.10;;
9789;SDS011;4934;50.852;8.098;2023-10-31T04:48:58;2.08;;;0.70;;
9789;SDS011;4934;50.852;8.098;2023-10-31T04:51:24;3.88;;;0.80;;
9789;SDS011;4934;50.852;8.098;2023-10-31T04:53:50;2.13;;;0.90;;
9789;SDS011;4934;50.852;8.098;2023-10-31T04:56:15;4.55;;;1.13;;
9789;SDS011;4934;50.852;8.098;2023-10-31T04:58:42;2.72;;;0.88;;
9789;SDS011;4934;50.852;8.098;2023-10-31T05:01:08;2.45;;;0.60;;
9789;SDS011;4934;50.852;8.098;2023-10-31T05:03:38;1.90;;;1.17;;
9789;SDS011;4934;50.852;8.098;2023-10-31T05:06:04;1.58;;;0.73;;
9789;SDS011;4934;50.852;8.098;2023-10-31T05:08:30;2.88;;;0.80;;
9789;SDS011;4934;50.852;8.098;2023-10-31T05:10:57;1.70;;;0.88;;
9789;SDS011;4934;50.852;8.098;2023-10-31T05:13:23;2.60;;;1.10;;
9789;SDS011;4934;50.852;8.098;2023-10-31T05:15:49;2.05;;;0.85;;
9789;SDS011;4934;50.852;8.098;2023-10-31T05:18:15;3.03;;;0.85;;
9789;SDS011;4934;50.852;8.098;2023-10-31T05:20:41;2.08;;;0.65;;
9789;SDS011;4934;50.852;8.098;2023-10-31T05:23:07;0.82;;;0.70;;
9789;SDS011;4934;50.852;8.098;2023-10-31T05:25:33;3.85;;;0.80;;
9789;SDS011;4934;50.852;8.098;2023-10-31T05:27:59;2.22;;;1.00;;
9789;SDS011;4934;50.852;8.098;2023-10-31T05:30:25;1.80;;;0.88;;
9789;SDS011;4934;50.852;8.098;2023-10-31T05:32:50;5.07;;;0.80;;
9789;SDS011;4934;50.852;8.098;2023-10-31T05:35:17;2.08;;;0.88;;
9789;SDS011;4934;50.852;8.098;2023-10-31T05:37:42;2.33;;;1.13;;
9789;SDS011;4934;50.852;8.098;2023-10-31T05:40:09;0.75;;;0.75;;
9789;SDS011;4934;50.852;8.098;2023-10-31T05:42:35;2.55;;;0.70;;
9789;SDS011;4934;50.852;8.098;2023-10-31T05:45:01;4.57;;;0.90;;
9789;SDS011;4934;50.852;8.098;2023-10-31T05:47:26;1.40;;;0.95;;
9789;SDS011;4934;50.852;8.098;2023-10-31T05:49:53;1.58;;;0.65;;
9789;SDS011;4934;50.852;8.098;2023-10-31T05:52:18;1.08;;;0.80;;
9789;SDS011;4934;50.852;8.098;2023-10-31T05:54:44;1.33;;;0.80;;
9789;SDS011;4934;50.852;8.098;2023-10-31T05:57:10;1.65;;;0.70;;
9789;SDS011;4934;50.852;8.098;2023-10-31T05:59:35;3.42;;;1.00;;
9789;SDS011;4934;50.852;8.098;2023-10-31T06:02:01;4.53;;;0.88;;
9789;SDS011;4934;50.852;8.098;2023-10-31T06:04:26;4.18;;;0.70;;
9789;SDS011;4934;50.852;8.098;2023-10-31T06:06:52;6.10;;;1.00;;
9789;SDS011;4934;50.852;8.098;2023-10-31T06:09:18;3.13;;;0.90;;
9789;SDS011;4934;50.852;8.098;2023-10-31T06:11:44;1.15;;;0.90;;
9789;SDS011;4934;50.852;8.098;2023-10-31T06:14:10;2.45;;;0.90;;
9789;SDS011;4934;50.852;8.098;2023-10-31T06:16:40;2.00;;;1.05;;
9789;SDS011;4934;50.852;8.098;2023-10-31T06:19:06;2.38;;;0.93;;
9789;SDS011;4934;50.852;8.098;2023-10-31T06:21:32;1.42;;;0.90;;
9789;SDS011;4934;50.852;8.098;2023-10-31T06:23:58;2.45;;;0.70;;
9789;SDS011;4934;50.852;8.098;2023-10-31T06:26:24;1.30;;;1.00;;
9789;SDS011;4934;50.852;8.098;2023-10-31T06:28:49;2.03;;;1.10;;
9789;SDS011;4934;50.852;8.098;2023-10-31T06:31:15;2.05;;;1.13;;
9789;SDS011;4934;50.852;8.098;2023-10-31T06:33:41;6.03;;;1.38;;
9789;SDS011;4934;50.852;8.098;2023-10-31T06:36:07;1.95;;;1.10;;
9789;SDS011;4934;50.852;8.098;2023-10-31T06:38:34;2.05;;;1.17;;
9789;SDS011;4934;50.852;8.098;2023-10-31T06:40:59;2.33;;;1.40;;
9789;SDS011;4934;50.852;8.098;2023-10-31T06:43:25;1.13;;;1.00;;
9789;SDS011;4934;50.852;8.098;2023-10-31T06:45:51;2.10;;;1.30;;
9789;SDS011;4934;50.852;8.098;2023-10-31T06:48:16;3.28;;;1.30;;
9789;SDS011;4934;50.852;8.098;2023-10-31T06:50:42;1.83;;;1.30;;
9789;SDS011;4934;50.852;8.098;2023-10-31T06:53:07;2.90;;;1.60;;
9789;SDS011;4934;50.852;8.098;2023-10-31T06:55:33;2.58;;;1.55;;
9789;SDS011;4934;50.852;8.098;2023-10-31T06:57:59;4.78;;;1.40;;
9789;SDS011;4934;50.852;8.098;2023-10-31T07:00:24;1.67;;;1.25;;
9789;SDS011;4934;50.852;8.098;2023-10-31T07:02:50;4.78;;;1.33;;
9789;SDS011;4934;50.852;8.098;2023-10-31T07:05:15;5.35;;;1.40;;
9789;SDS011;4934;50.852;8.098;2023-10-31T07:07:41;3.28;;;1.23;;
9789;SDS011;4934;50.852;8.098;2023-10-31T07:10:07;3.17;;;1.65;;
9789;SDS011;4934;50.852;8.098;2023-10-31T07:12:33;2.65;;;1.58;;
9789;SDS011;4934;50.852;8.098;2023-10-31T07:15:00;3.33;;;1.67;;
9789;SDS011;4934;50.852;8.098;2023-10-31T07:17:26;2.13;;;1.52;;
9789;SDS011;4934;50.852;8.098;2023-10-31T07:19:52;4.95;;;1.88;;
9789;SDS011;4934;50.852;8.098;2023-10-31T07:22:17;1.85;;;1.30;;
9789;SDS011;4934;50.852;8.098;2023-10-31T07:24:43;2.40;;;1.65;;
9789;SDS011;4934;50.852;8.098;2023-10-31T07:27:09;6.20;;;1.65;;
9789;SDS011;4934;50.852;8.098;2023-10-31T07:29:35;1.92;;;1.50;;
9789;SDS011;4934;50.852;8.098;2023-10-31T07:32:03;3.60;;;1.40;;
9789;SDS011;4934;50.852;8.098;2023-10-31T07:34:29;2.08;;;1.48;;
9789;SDS011;4934;50.852;8.098;2023-10-31T07:36:54;5.68;;;1.70;;
9789;SDS011;4934;50.852;8.098;2023-10-31T07:39:21;3.40;;;1.50;;
9789;SDS011;4934;50.852;8.098;2023-10-31T07:41:47;3.58;;;1.75;;
9789;SDS011;4934;50.852;8.098;2023-10-31T07:44:13;3.42;;;1.75;;
9789;SDS011;4934;50.852;8.098;2023-10-31T07:46:39;2.90;;;1.73;;
9789;SDS011;4934;50.852;8.098;2023-10-31T07:49:04;3.33;;;2.25;;
9789;SDS011;4934;50.852;8.098;2023-10-31T07:51:31;3.33;;;1.95;;
9789;SDS011;4934;50.852;8.098;2023-10-31T07:54:00;4.97;;;2.30;;
9789;SDS011;4934;50.852;8.098;2023-10-31T07:56:46;5.97;;;2.47;;
9789;SDS011;4934;50.852;8.098;2023-10-31T07:59:12;2.97;;;2.40;;
9789;SDS011;4934;50.852;8.098;2023-10-31T08:01:39;4.78;;;2.88;;
9789;SDS011;4934;50.852;8.098;2023-10-31T08:04:05;5.18;;;2.83;;
9789;SDS011;4934;50.852;8.098;2023-10-31T08:06:30;4.28;;;2.88;;
9789;SDS011;4934;50.852;8.098;2023-10-31T08:08:56;8.10;;;4.43;;
9789;SDS011;4934;50.852;8.098;2023-10-31T08:11:22;7.47;;;4.43;;
9789;SDS011;4934;50.852;8.098;2023-10-31T08:13:47;7.32;;;4.18;;
9789;SDS011;4934;50.852;8.098;2023-10-31T08:16:17;9.98;;;5.18;;
9789;SDS011;4934;50.852;8.098;2023-10-31T08:18:44;11.18;;;5.88;;
9789;SDS011;4934;50.852;8.098;2023-10-31T08:21:10;11.57;;;4.72;;
9789;SDS011;4934;50.852;8.098;2023-10-31T08:23:36;14.10;;;6.40;;
9789;SDS011;4934;50.852;8.098;2023-10-31T08:26:02;14.60;;;6.00;;
9789;SDS011;4934;50.852;8.098;2023-10-31T08:28:28;12.60;;;5.47;;
9789;SDS011;4934;50.852;8.098;2023-10-31T08:30:53;12.27;;;8.05;;
9789;SDS011;4934;50.852;8.098;2023-10-31T08:33:19;9.85;;;5.53;;
9789;SDS011;4934;50.852;8.098;2023-10-31T08:35:45;10.20;;;4.93;;
9789;SDS011;4934;50.852;8.098;2023-10-31T08:38:12;13.82;;;4.97;;
9789;SDS011;4934;50.852;8.098;2023-10-31T08:40:38;6.30;;;4.28;;
9789;SDS011;4934;50.852;8.098;2023-10-31T08:43:04;8.00;;;4.15;;
9789;SDS011;4934;50.852;8.098;2023-10-31T08:45:31;5.78;;;4.20;;
9789;SDS011;4934;50.852;8.098;2023-10-31T08:47:58;6.07;;;3.92;;
9789;SDS011;4934;50.852;8.098;2023-10-31T08:50:23;6.95;;;3.63;;
9789;SDS011;4934;50.852;8.098;2023-10-31T08:52:49;6.70;;;3.67;;
9789;SDS011;4934;50.852;8.098;2023-10-31T08:55:15;5.55;;;3.78;;
9789;SDS011;4934;50.852;8.098;2023-10-31T08:57:41;5.00;;;3.60;;
9789;SDS011;4934;50.852;8.098;2023-10-31T09:00:06;8.55;;;3.38;;
9789;SDS011;4934;50.852;8.098;2023-10-31T09:02:32;7.22;;;3.00;;
9789;SDS011;4934;50.852;8.098;2023-10-31T09:04:58;6.38;;;3.55;;
9789;SDS011;4934;50.852;8.098;2023-10-31T09:07:24;6.40;;;4.38;;
9789;SDS011;4934;50.852;8.098;2023-10-31T09:09:50;6.47;;;3.22;;
9789;SDS011;4934;50.852;8.098;2023-10-31T09:12:15;7.30;;;3.92;;
9789;SDS011;4934;50.852;8.098;2023-10-31T09:14:41;6.43;;;3.00;;
9789;SDS011;4934;50.852;8.098;2023-10-31T09:17:07;3.70;;;2.47;;
9789;SDS011;4934;50.852;8.098;2023-10-31T09:19:32;7.18;;;4.25;;
9789;SDS011;4934;50.852;8.098;2023-10-31T09:21:58;6.45;;;3.20;;
9789;SDS011;4934;50.852;8.098;2023-10-31T09:24:23;7.50;;;3.72;;
9789;SDS011;4934;50.852;8.098;2023-10-31T09:26:49;5.82;;;3.80;;
9789;SDS011;4934;50.852;8.098;2023-10-31T09:29:15;6.07;;;3.97;;
9789;SDS011;4934;50.852;8.098;2023-10-31T09:31:40;7.45;;;4.97;;
9789;SDS011;4934;50.852;8.098;2023-10-31T09:34:06;8.57;;;4.25;;
9789;SDS011;4934;50.852;8.098;2023-10-31T09:36:32;6.43;;;3.92;;
9789;SDS011;4934;50.852;8.098;2023-10-31T09:39:01;5.55;;;3.65;;
9789;SDS011;4934;50.852;8.098;2023-10-31T09:41:28;6.20;;;3.95;;
9789;SDS011;4934;50.852;8.098;2023-10-31T09:43:53;8.93;;;3.80;;
9789;SDS011;4934;50.852;8.098;2023-10-31T09:46:20;7.47;;;3.13;;
9789;SDS011;4934;50.852;8.098;2023-10-31T09:48:47;7.63;;;3.33;;
9789;SDS011;4934;50.852;8.098;2023-10-31T09:51:14;4.75;;;3.03;;
9789;SDS011;4934;50.852;8.098;2023-10-31T09:53:39;5.13;;;3.40;;
9789;SDS011;4934;50.852;8.098;2023-10-31T09:56:09;11.43;;;3.05;;
9789;SDS011;4934;50.852;8.098;2023-10-31T09:58:35;4.95;;;2.40;;
9789;SDS011;4934;50.852;8.098;2023-10-31T10:01:01;4.55;;;3.15;;
9789;SDS011;4934;50.852;8.098;2023-10-31T10:03:27;3.22;;;2.40;;
9789;SDS011;4934;50.852;8.098;2023-10-31T10:05:54;4.90;;;2.88;;
9789;SDS011;4934;50.852;8.098;2023-10-31T10:08:20;3.17;;;2.10;;
9789;SDS011;4934;50.852;8.098;2023-10-31T10:10:46;13.52;;;3.13;;
9789;SDS011;4934;50.852;8.098;2023-10-31T10:13:12;6.95;;;3.05;;
9789;SDS011;4934;50.852;8.098;2023-10-31T10:15:45;6.68;;;2.95;;
9789;SDS011;4934;50.852;8.098;2023-10-31T10:23:26;6.93;;;2.55;;
9789;SDS011;4934;50.852;8.098;2023-10-31T10:25:52;4.45;;;2.22;;
9789;SDS011;4934;50.852;8.098;2023-10-31T10:28:19;15.55;;;5.20;;
9789;SDS011;4934;50.852;8.098;2023-10-31T10:30:45;3.35;;;2.05;;
9789;SDS011;4934;50.852;8.098;2023-10-31T10:33:12;6.80;;;2.23;;
9789;SDS011;4934;50.852;8.098;2023-10-31T10:35:39;3.20;;;1.95;;
9789;SDS011;4934;50.852;8.098;2023-10-31T10:38:06;3.72;;;1.50;;
9789;SDS011;4934;50.852;8.098;2023-10-31T10:40:44;3.17;;;1.90;;
9789;SDS011;4934;50.852;8.098;2023-10-31T10:43:24;4.82;;;2.38;;
9789;SDS011;4934;50.852;8.098;2023-10-31T10:45:59;5.10;;;1.90;;
9789;SDS011;4934;50.852;8.098;2023-10-31T10:48:26;6.72;;;1.90;;
9789;SDS011;4934;50.852;8.098;2023-10-31T10:50:57;3.97;;;1.42;;
9789;SDS011;4934;50.852;8.098;2023-10-31T10:53:30;3.85;;;1.30;;
9789;SDS011;4934;50.852;8.098;2023-10-31T10:56:07;4.60;;;1.70;;
9789;SDS011;4934;50.852;8.098;2023-10-31T10:58:44;7.30;;;2.10;;
9789;SDS011;4934;50.852;8.098;2023-10-31T11:01:25;5.20;;;1.65;;
9789;SDS011;4934;50.852;8.098;2023-10-31T11:03:53;2.22;;;1.40;;
9789;SDS011;4934;50.852;8.098;2023-10-31T11:06:20;2.83;;;1.65;;
9789;SDS011;4934;50.852;8.098;2023-10-31T11:08:46;5.90;;;1.00;;
9789;SDS011;4934;50.852;8.098;2023-10-31T11:11:15;3.90;;;1.65;;
9789;SDS011;4934;50.852;8.098;2023-10-31T11:13:45;4.32;;;1.27;;
9789;SDS011;4934;50.852;8.098;2023-10-31T11:16:13;5.32;;;1.67;;
9789;SDS011;4934;50.852;8.098;2023-10-31T11:18:45;4.43;;;2.13;;
9789;SDS011;4934;50.852;8.098;2023-10-31T11:21:12;3.70;;;1.80;;
9789;SDS011;4934;50.852;8.098;2023-10-31T11:23:38;2.67;;;1.98;;
9789;SDS011;4934;50.852;8.098;2023-10-31T11:26:06;2.75;;;1.20;;
9789;SDS011;4934;50.852;8.098;2023-10-31T11:28:33;3.05;;;2.05;;
9789;SDS011;4934;50.852;8.098;2023-10-31T11:31:01;6.95;;;1.80;;
9789;SDS011;4934;50.852;8.098;2023-10-31T11:33:27;3.90;;;1.42;;
9789;SDS011;4934;50.852;8.098;2023-10-31T11:36:03;3.15;;;1.48;;
9789;SDS011;4934;50.852;8.098;2023-10-31T11:38:33;5.07;;;2.20;;
9789;SDS011;4934;50.852;8.098;2023-10-31T11:41:01;9.02;;;3.22;;
9789;SDS011;4934;50.852;8.098;2023-10-31T11:46:17;4.43;;;2.70;;
9789;SDS011;4934;50.852;8.098;2023-10-31T11:48:45;6.88;;;1.92;;
9789;SDS011;4934;50.852;8.098;2023-10-31T11:51:12;9.07;;;1.25;;
9789;SDS011;4934;50.852;8.098;2023-10-31T11:53:39;3.17;;;0.98;;
9789;SDS011;4934;50.852;8.098;2023-10-31T11:56:05;4.18;;;1.38;;
9789;SDS011;4934;50.852;8.098;2023-10-31T11:58:32;2.67;;;1.00;;
9789;SDS011;4934;50.852;8.098;2023-10-31T12:01:01;5.10;;;1.30;;
9789;SDS011;4934;50.852;8.098;2023-10-31T12:03:36;1.55;;;1.00;;
9789;SDS011;4934;50.852;8.098;2023-10-31T12:06:02;3.05;;;1.17;;
9789;SDS011;4934;50.852;8.098;2023-10-31T12:08:38;2.38;;;1.00;;
9789;SDS011;4934;50.852;8.098;2023-10-31T12:13:39;3.28;;;1.20;;
9789;SDS011;4934;50.852;8.098;2023-10-31T12:16:10;4.03;;;2.30;;
9789;SDS011;4934;50.852;8.098;2023-10-31T12:18:37;7.25;;;1.83;;
9789;SDS011;4934;50.852;8.098;2023-10-31T12:21:06;3.38;;;1.48;;
9789;SDS011;4934;50.852;8.098;2023-10-31T12:23:33;2.92;;;1.25;;
9789;SDS011;4934;50.852;8.098;2023-10-31T12:25:59;4.07;;;1.50;;
9789;SDS011;4934;50.852;8.098;2023-10-31T12:28:25;2.60;;;1.00;;
9789;SDS011;4934;50.852;8.098;2023-10-31T12:30:53;4.68;;;0.90;;
9789;SDS011;4934;50.852;8.098;2023-10-31T12:33:21;2.17;;;1.00;;
9789;SDS011;4934;50.852;8.098;2023-10-31T12:35:51;2.63;;;1.00;;
9789;SDS011;4934;50.852;8.098;2023-10-31T12:38:21;1.25;;;0.85;;
9789;SDS011;4934;50.852;8.098;2023-10-31T12:40:47;2.33;;;0.77;;
9789;SDS011;4934;50.852;8.098;2023-10-31T12:43:14;3.63;;;1.23;;
9789;SDS011;4934;50.852;8.098;2023-10-31T12:45:40;2.88;;;1.15;;
9789;SDS011;4934;50.852;8.098;2023-10-31T12:48:07;5.03;;;1.00;;
9789;SDS011;4934;50.852;8.098;2023-10-31T12:50:34;3.33;;;0.98;;
9789;SDS011;4934;50.852;8.098;2023-10-31T12:53:07;6.45;;;0.70;;
9789;SDS011;4934;50.852;8.098;2023-10-31T12:55:37;5.22;;;0.93;;
9789;SDS011;4934;50.852;8.098;2023-10-31T12:58:04;2.50;;;0.77;;
9789;SDS011;4934;50.852;8.098;2023-10-31T13:00:31;1.75;;;0.60;;
9789;SDS011;4934;50.852;8.098;2023-10-31T13:05:28;3.60;;;1.00;;
9789;SDS011;4934;50.852;8.098;2023-10-31T13:07:55;3.40;;;1.00;;
9789;SDS011;4934;50.852;8.098;2023-10-31T13:10:22;1.83;;;0.80;;
9789;SDS011;4934;50.852;8.098;2023-10-31T13:12:49;1.35;;;0.60;;
9789;SDS011;4934;50.852;8.098;2023-10-31T13:15:16;0.98;;;0.57;;
9789;SDS011;4934;50.852;8.098;2023-10-31T13:17:49;7.03;;;3.80;;
9789;SDS011;4934;50.852;8.098;2023-10-31T13:20:17;2.17;;;0.82;;
9789;SDS011;4934;50.852;8.098;2023-10-31T13:22:46;0.95;;;0.70;;
9789;SDS011;4934;50.852;8.098;2023-10-31T13:25:12;2.60;;;0.77;;
9789;SDS011;4934;50.852;8.098;2023-10-31T13:27:45;2.10;;;1.00;;
9789;SDS011;4934;50.852;8.098;2023-10-31T13:30:15;7.22;;;1.10;;
9789;SDS011;4934;50.852;8.098;2023-10-31T13:32:42;1.95;;;0.70;;
9789;SDS011;4934;50.852;8.098;2023-10-31T13:35:08;4.43;;;1.73;;
9789;SDS011;4934;50.852;8.098;2023-10-31T13:37:35;4.40;;;1.60;;
9789;SDS011;4934;50.852;8.098;2023-10-31T13:40:02;2.65;;;1.17;;
9789;SDS011;4934;50.852;8.098;2023-10-31T13:42:28;3.88;;;0.90;;
9789;SDS011;4934;50.852;8.098;2023-10-31T13:44:54;1.92;;;0.70;;
9789;SDS011;4934;50.852;8.098;2023-10-31T13:47:19;5.65;;;1.35;;
9789;SDS011;4934;50.852;8.098;2023-10-31T13:49:46;1.55;;;1.13;;
9789;SDS011;4934;50.852;8.098;2023-10-31T13:52:11;4.78;;;1.00;;
9789;SDS011;4934;50.852;8.098;2023-10-31T13:54:37;4.28;;;1.77;;
9789;SDS011;4934;50.852;8.098;2023-10-31T13:57:03;10.00;;;1.50;;
9789;SDS011;4934;50.852;8.098;2023-10-31T13:59:28;4.18;;;1.15;;
9789;SDS011;4934;50.852;8.098;2023-10-31T14:01:54;0.88;;;0.80;;
9789;SDS011;4934;50.852;8.098;2023-10-31T14:04:20;2.78;;;0.88;;
9789;SDS011;4934;50.852;8.098;2023-10-31T14:06:46;4.82;;;0.90;;
9789;SDS011;4934;50.852;8.098;2023-10-31T14:09:13;2.33;;;0.88;;
9789;SDS011;4934;50.852;8.098;2023-10-31T14:11:39;3.95;;;1.00;;
9789;SDS011;4934;50.852;8.098;2023-10-31T14:14:05;2.50;;;0.98;;
9789;SDS011;4934;50.852;8.098;2023-10-31T14:16:38;3.08;;;1.13;;
9789;SDS011;4934;50.852;8.098;2023-10-31T14:19:05;1.60;;;0.80;;
9789;SDS011;4934;50.852;8.098;2023-10-31T14:21:32;3.20;;;1.77;;
9789;SDS011;4934;50.852;8.098;2023-10-31T14:23:58;5.78;;;2.30;;
9789;SDS011;4934;50.852;8.098;2023-10-31T14:26:25;8.02;;;2.55;;
9789;SDS011;4934;50.852;8.098;2023-10-31T14:28:52;3.92;;;1.48;;
9789;SDS011;4934;50.852;8.098;2023-10-31T14:31:17;12.13;;;6.68;;
9789;SDS011;4934;50.852;8.098;2023-10-31T14:33:45;4.60;;;2.28;;
9789;SDS011;4934;50.852;8.098;2023-10-31T14:36:11;5.45;;;2.67;;
9789;SDS011;4934;50.852;8.098;2023-10-31T14:38:42;2.35;;;1.10;;
9789;SDS011;4934;50.852;8.098;2023-10-31T14:41:08;8.60;;;3.28;;
9789;SDS011;4934;50.852;8.098;2023-10-31T14:43:34;6.15;;;1.60;;
9789;SDS011;4934;50.852;8.098;2023-10-31T14:46:00;3.05;;;1.10;;
9789;SDS011;4934;50.852;8.098;2023-10-31T14:48:27;7.28;;;2.70;;
9789;SDS011;4934;50.852;8.098;2023-10-31T14:50:52;4.47;;;2.45;;
9789;SDS011;4934;50.852;8.098;2023-10-31T14:53:18;2.42;;;1.20;;
9789;SDS011;4934;50.852;8.098;2023-10-31T14:55:46;3.25;;;1.15;;
9789;SDS011;4934;50.852;8.098;2023-10-31T14:58:12;7.57;;;3.00;;
9789;SDS011;4934;50.852;8.098;2023-10-31T15:00:38;6.50;;;1.27;;
9789;SDS011;4934;50.852;8.098;2023-10-31T15:03:04;4.88;;;1.10;;
9789;SDS011;4934;50.852;8.098;2023-10-31T15:05:30;4.80;;;1.10;;
9789;SDS011;4934;50.852;8.098;2023-10-31T15:07:56;4.55;;;1.02;;
9789;SDS011;4934;50.852;8.098;2023-10-31T15:10:23;7.07;;;2.25;;
9789;SDS011;4934;50.852;8.098;2023-10-31T15:12:49;2.22;;;1.00;;
9789;SDS011;4934;50.852;8.098;2023-10-31T15:15:16;8.65;;;1.20;;
9789;SDS011;4934;50.852;8.098;2023-10-31T15:17:42;1.88;;;0.80;;
9789;SDS011;4934;50.852;8.098;2023-10-31T15:20:08;4.35;;;0.93;;
9789;SDS011;4934;50.852;8.098;2023-10-31T15:22:41;2.05;;;0.75;;
9789;SDS011;4934;50.852;8.098;2023-10-31T15:25:07;4.47;;;1.20;;
9789;SDS011;4934;50.852;8.098;2023-10-31T15:27:36;1.88;;;0.85;;